sensor_id;sensor_type;location;lat;lon;timestamp;temperature;humidity
14850;DHT22;7517;48.400;11.770;2023-08-06T00:00:40;21.10;76.50
14850;DHT22;7517;48.400;11.770;2023-08-06T00:03:07;21.20;76.50
14850;DHT22;7517;48.400;11.770;2023-08-06T00:05:36;21.10;76.40
14850;DHT22;7517;48.400;11.770;2023-08-06T00:08:03;21.10;76.70
14850;DHT22;7517;48.400;11.770;2023-08-06T00:10:31;21.10;76.40
14850;DHT22;7517;48.400;11.770;2023-08-06T00:12:58;21.10;76.30
14850;DHT22;7517;48.400;11.770;2023-08-06T00:15:25;21.20;76.30
14850;DHT22;7517;48.400;11.770;2023-08-06T00:17:53;21.20;76.30
14850;DHT22;7517;48.400;11.770;2023-08-06T00:20:20;21.10;76.30
14850;DHT22;7517;48.400;11.770;2023-08-06T00:22:49;21.10;76.10
14850;DHT22;7517;48.400;11.770;2023-08-06T00:25:17;21.10;76.00
14850;DHT22;7517;48.400;11.770;2023-08-06T00:27:45;21.10;75.90
14850;DHT22;7517;48.400;11.770;2023-08-06T00:30:12;21.10;76.10
14850;DHT22;7517;48.400;11.770;2023-08-06T00:32:39;21.10;76.10
14850;DHT22;7517;48.400;11.770;2023-08-06T00:35:07;21.10;76.10
14850;DHT22;7517;48.400;11.770;2023-08-06T00:37:35;21.10;76.20
14850;DHT22;7517;48.400;11.770;2023-08-06T00:40:05;21.10;76.00
14850;DHT22;7517;48.400;11.770;2023-08-06T00:42:33;21.10;75.80
14850;DHT22;7517;48.400;11.770;2023-08-06T00:45:00;21.00;75.70
14850;DHT22;7517;48.400;11.770;2023-08-06T00:47:28;21.00;75.70
14850;DHT22;7517;48.400;11.770;2023-08-06T00:49:56;21.00;75.40
14850;DHT22;7517;48.400;11.770;2023-08-06T00:52:25;21.00;75.50
14850;DHT22;7517;48.400;11.770;2023-08-06T00:54:53;21.00;75.80
14850;DHT22;7517;48.400;11.770;2023-08-06T00:57:24;21.00;75.80
14850;DHT22;7517;48.400;11.770;2023-08-06T00:59:53;21.00;75.70
14850;DHT22;7517;48.400;11.770;2023-08-06T01:02:21;21.00;75.50
14850;DHT22;7517;48.400;11.770;2023-08-06T01:04:48;20.90;75.60
14850;DHT22;7517;48.400;11.770;2023-08-06T01:07:25;20.90;75.90
14850;DHT22;7517;48.400;11.770;2023-08-06T01:10:31;20.80;76.00
14850;DHT22;7517;48.400;11.770;2023-08-06T01:13:16;20.80;76.30
14850;DHT22;7517;48.400;11.770;2023-08-06T01:15:50;20.80;76.10
14850;DHT22;7517;48.400;11.770;2023-08-06T01:18:22;20.80;76.00
14850;DHT22;7517;48.400;11.770;2023-08-06T01:20:51;20.70;76.70
14850;DHT22;7517;48.400;11.770;2023-08-06T01:23:19;20.70;75.60
14850;DHT22;7517;48.400;11.770;2023-08-06T01:25:53;20.60;75.50
14850;DHT22;7517;48.400;11.770;2023-08-06T01:28:32;20.60;75.80
14850;DHT22;7517;48.400;11.770;2023-08-06T01:31:05;20.60;76.00
14850;DHT22;7517;48.400;11.770;2023-08-06T01:33:41;20.50;76.10
14850;DHT22;7517;48.400;11.770;2023-08-06T01:36:15;20.50;76.50
14850;DHT22;7517;48.400;11.770;2023-08-06T01:38:44;20.40;76.70
14850;DHT22;7517;48.400;11.770;2023-08-06T01:41:11;20.40;76.70
14850;DHT22;7517;48.400;11.770;2023-08-06T01:43:39;20.40;76.90
14850;DHT22;7517;48.400;11.770;2023-08-06T01:46:06;20.30;77.00
14850;DHT22;7517;48.400;11.770;2023-08-06T01:48:34;20.30;77.10
14850;DHT22;7517;48.400;11.770;2023-08-06T01:51:02;20.30;77.20
14850;DHT22;7517;48.400;11.770;2023-08-06T01:53:32;20.30;77.30
14850;DHT22;7517;48.400;11.770;2023-08-06T01:56:00;20.30;77.30
14850;DHT22;7517;48.400;11.770;2023-08-06T01:58:27;20.20;77.30
14850;DHT22;7517;48.400;11.770;2023-08-06T02:00:54;20.20;77.30
14850;DHT22;7517;48.400;11.770;2023-08-06T02:03:22;20.20;77.40
14850;DHT22;7517;48.400;11.770;2023-08-06T02:05:49;20.20;77.70
14850;DHT22;7517;48.400;11.770;2023-08-06T02:08:16;20.20;77.90
14850;DHT22;7517;48.400;11.770;2023-08-06T02:10:45;20.20;77.90
14850;DHT22;7517;48.400;11.770;2023-08-06T02:13:13;20.20;78.00
14850;DHT22;7517;48.400;11.770;2023-08-06T02:15:42;20.20;77.90
14850;DHT22;7517;48.400;11.770;2023-08-06T02:18:11;20.20;78.00
14850;DHT22;7517;48.400;11.770;2023-08-06T02:20:38;20.20;78.10
14850;DHT22;7517;48.400;11.770;2023-08-06T02:23:05;20.10;78.20
14850;DHT22;7517;48.400;11.770;2023-08-06T02:25:34;20.10;78.20
14850;DHT22;7517;48.400;11.770;2023-08-06T02:28:05;20.10;78.20
14850;DHT22;7517;48.400;11.770;2023-08-06T02:30:32;20.20;78.50
14850;DHT22;7517;48.400;11.770;2023-08-06T02:32:59;20.20;78.40
14850;DHT22;7517;48.400;11.770;2023-08-06T02:35:26;20.20;78.40
14850;DHT22;7517;48.400;11.770;2023-08-06T02:37:53;20.20;78.10
14850;DHT22;7517;48.400;11.770;2023-08-06T02:40:21;20.20;78.00
14850;DHT22;7517;48.400;11.770;2023-08-06T02:42:48;20.20;78.00
14850;DHT22;7517;48.400;11.770;2023-08-06T02:45:17;20.20;78.10
14850;DHT22;7517;48.400;11.770;2023-08-06T02:47:45;20.10;78.10
14850;DHT22;7517;48.400;11.770;2023-08-06T02:50:12;20.10;78.00
14850;DHT22;7517;48.400;11.770;2023-08-06T02:52:39;20.10;78.00
14850;DHT22;7517;48.400;11.770;2023-08-06T02:55:07;20.10;78.00
14850;DHT22;7517;48.400;11.770;2023-08-06T02:57:34;20.10;78.00
14850;DHT22;7517;48.400;11.770;2023-08-06T03:00:02;20.10;78.10
14850;DHT22;7517;48.400;11.770;2023-08-06T03:02:31;20.10;78.20
14850;DHT22;7517;48.400;11.770;2023-08-06T03:04:58;20.10;78.20
14850;DHT22;7517;48.400;11.770;2023-08-06T03:07:27;20.00;78.20
14850;DHT22;7517;48.400;11.770;2023-08-06T03:09:54;20.00;78.20
14850;DHT22;7517;48.400;11.770;2023-08-06T03:12:21;20.00;78.30
14850;DHT22;7517;48.400;11.770;2023-08-06T03:14:48;20.00;78.30
14850;DHT22;7517;48.400;11.770;2023-08-06T03:17:15;20.00;78.30
14850;DHT22;7517;48.400;11.770;2023-08-06T03:19:44;20.00;78.20
14850;DHT22;7517;48.400;11.770;2023-08-06T03:22:11;20.00;78.30
14850;DHT22;7517;48.400;11.770;2023-08-06T03:24:39;20.00;78.20
14850;DHT22;7517;48.400;11.770;2023-08-06T03:27:06;20.00;78.20
14850;DHT22;7517;48.400;11.770;2023-08-06T03:29:33;19.90;78.00
14850;DHT22;7517;48.400;11.770;2023-08-06T03:32:00;19.90;77.90
14850;DHT22;7517;48.400;11.770;2023-08-06T03:34:28;19.90;77.90
14850;DHT22;7517;48.400;11.770;2023-08-06T03:36:56;19.90;77.90
14850;DHT22;7517;48.400;11.770;2023-08-06T03:39:24;19.90;78.00
14850;DHT22;7517;48.400;11.770;2023-08-06T03:41:51;19.90;78.00
14850;DHT22;7517;48.400;11.770;2023-08-06T03:44:18;19.90;78.00
14850;DHT22;7517;48.400;11.770;2023-08-06T03:46:46;19.80;77.90
14850;DHT22;7517;48.400;11.770;2023-08-06T03:49:13;19.80;77.80
14850;DHT22;7517;48.400;11.770;2023-08-06T03:51:40;19.80;77.80
14850;DHT22;7517;48.400;11.770;2023-08-06T03:54:09;19.80;77.90
14850;DHT22;7517;48.400;11.770;2023-08-06T03:56:36;19.80;77.70
14850;DHT22;7517;48.400;11.770;2023-08-06T03:59:03;19.80;77.60
14850;DHT22;7517;48.400;11.770;2023-08-06T04:01:30;19.70;77.80
14850;DHT22;7517;48.400;11.770;2023-08-06T04:03:58;19.70;77.90
14850;DHT22;7517;48.400;11.770;2023-08-06T04:06:25;19.70;77.80
14850;DHT22;7517;48.400;11.770;2023-08-06T04:08:52;19.70;77.80
14850;DHT22;7517;48.400;11.770;2023-08-06T04:11:21;19.70;77.80
14850;DHT22;7517;48.400;11.770;2023-08-06T04:13:48;19.70;78.60
14850;DHT22;7517;48.400;11.770;2023-08-06T04:16:16;19.70;77.90
14850;DHT22;7517;48.400;11.770;2023-08-06T04:18:43;19.70;77.90
14850;DHT22;7517;48.400;11.770;2023-08-06T04:21:11;19.70;77.90
14850;DHT22;7517;48.400;11.770;2023-08-06T04:23:38;19.60;77.90
14850;DHT22;7517;48.400;11.770;2023-08-06T04:26:05;19.70;78.00
14850;DHT22;7517;48.400;11.770;2023-08-06T04:28:34;19.60;77.90
14850;DHT22;7517;48.400;11.770;2023-08-06T04:31:01;19.60;77.90
14850;DHT22;7517;48.400;11.770;2023-08-06T04:33:29;19.60;77.90
14850;DHT22;7517;48.400;11.770;2023-08-06T04:35:56;19.60;77.80
14850;DHT22;7517;48.400;11.770;2023-08-06T04:38:24;19.60;77.90
14850;DHT22;7517;48.400;11.770;2023-08-06T04:40:52;19.60;77.80
14850;DHT22;7517;48.400;11.770;2023-08-06T04:43:19;19.60;77.80
14850;DHT22;7517;48.400;11.770;2023-08-06T04:45:49;19.60;77.80
14850;DHT22;7517;48.400;11.770;2023-08-06T04:48:17;19.60;77.80
14850;DHT22;7517;48.400;11.770;2023-08-06T04:50:44;19.60;77.90
14850;DHT22;7517;48.400;11.770;2023-08-06T04:53:12;19.60;78.00
14850;DHT22;7517;48.400;11.770;2023-08-06T04:55:40;19.60;78.80
14850;DHT22;7517;48.400;11.770;2023-08-06T04:58:08;19.60;78.10
14850;DHT22;7517;48.400;11.770;2023-08-06T05:00:36;19.60;77.90
14850;DHT22;7517;48.400;11.770;2023-08-06T05:03:05;19.60;77.70
14850;DHT22;7517;48.400;11.770;2023-08-06T05:05:33;19.60;77.80
14850;DHT22;7517;48.400;11.770;2023-08-06T05:08:00;19.60;77.70
14850;DHT22;7517;48.400;11.770;2023-08-06T05:10:28;19.60;77.70
14850;DHT22;7517;48.400;11.770;2023-08-06T05:12:55;19.50;77.80
14850;DHT22;7517;48.400;11.770;2023-08-06T05:15:22;19.60;78.00
14850;DHT22;7517;48.400;11.770;2023-08-06T05:17:50;19.60;77.90
14850;DHT22;7517;48.400;11.770;2023-08-06T05:20:20;19.60;78.20
14850;DHT22;7517;48.400;11.770;2023-08-06T05:22:47;19.60;78.20
14850;DHT22;7517;48.400;11.770;2023-08-06T05:25:15;19.60;77.90
14850;DHT22;7517;48.400;11.770;2023-08-06T05:27:42;19.70;78.10
14850;DHT22;7517;48.400;11.770;2023-08-06T05:30:10;19.70;78.20
14850;DHT22;7517;48.400;11.770;2023-08-06T05:32:37;19.70;78.00
14850;DHT22;7517;48.400;11.770;2023-08-06T05:35:05;19.80;78.10
14850;DHT22;7517;48.400;11.770;2023-08-06T05:37:34;19.80;78.10
14850;DHT22;7517;48.400;11.770;2023-08-06T05:40:02;19.80;78.00
14850;DHT22;7517;48.400;11.770;2023-08-06T05:42:29;19.90;78.00
14850;DHT22;7517;48.400;11.770;2023-08-06T05:44:57;19.90;78.20
14850;DHT22;7517;48.400;11.770;2023-08-06T05:47:24;19.90;78.00
14850;DHT22;7517;48.400;11.770;2023-08-06T05:49:51;20.00;77.70
14850;DHT22;7517;48.400;11.770;2023-08-06T05:52:18;20.00;77.60
14850;DHT22;7517;48.400;11.770;2023-08-06T05:54:47;20.00;77.40
14850;DHT22;7517;48.400;11.770;2023-08-06T05:57:14;20.00;77.20
14850;DHT22;7517;48.400;11.770;2023-08-06T05:59:42;20.10;77.10
14850;DHT22;7517;48.400;11.770;2023-08-06T06:02:09;20.10;77.10
14850;DHT22;7517;48.400;11.770;2023-08-06T06:04:37;20.10;77.10
14850;DHT22;7517;48.400;11.770;2023-08-06T06:07:04;20.10;77.00
14850;DHT22;7517;48.400;11.770;2023-08-06T06:09:32;20.10;77.00
14850;DHT22;7517;48.400;11.770;2023-08-06T06:12:01;20.10;77.70
14850;DHT22;7517;48.400;11.770;2023-08-06T06:14:28;20.10;76.90
14850;DHT22;7517;48.400;11.770;2023-08-06T06:16:55;20.10;76.90
14850;DHT22;7517;48.400;11.770;2023-08-06T06:19:22;20.20;76.80
14850;DHT22;7517;48.400;11.770;2023-08-06T06:21:49;20.20;76.80
14850;DHT22;7517;48.400;11.770;2023-08-06T06:24:17;20.10;76.70
14850;DHT22;7517;48.400;11.770;2023-08-06T06:26:44;20.20;76.90
14850;DHT22;7517;48.400;11.770;2023-08-06T06:29:13;20.20;76.90
14850;DHT22;7517;48.400;11.770;2023-08-06T06:31:40;20.20;76.80
14850;DHT22;7517;48.400;11.770;2023-08-06T06:34:07;20.20;76.60
14850;DHT22;7517;48.400;11.770;2023-08-06T06:36:34;20.20;76.30
14850;DHT22;7517;48.400;11.770;2023-08-06T06:39:02;20.30;76.20
14850;DHT22;7517;48.400;11.770;2023-08-06T06:41:29;20.20;76.10
14850;DHT22;7517;48.400;11.770;2023-08-06T06:43:58;20.20;76.20
14850;DHT22;7517;48.400;11.770;2023-08-06T06:46:27;20.30;76.20
14850;DHT22;7517;48.400;11.770;2023-08-06T06:48:54;20.30;76.20
14850;DHT22;7517;48.400;11.770;2023-08-06T06:51:21;20.30;76.10
14850;DHT22;7517;48.400;11.770;2023-08-06T06:53:49;20.30;75.90
14850;DHT22;7517;48.400;11.770;2023-08-06T06:56:16;20.30;75.90
14850;DHT22;7517;48.400;11.770;2023-08-06T06:58:43;20.30;75.90
14850;DHT22;7517;48.400;11.770;2023-08-06T07:01:10;20.30;75.90
14850;DHT22;7517;48.400;11.770;2023-08-06T07:03:40;20.30;75.90
14850;DHT22;7517;48.400;11.770;2023-08-06T07:06:07;20.30;75.90
14850;DHT22;7517;48.400;11.770;2023-08-06T07:08:34;20.30;75.80
14850;DHT22;7517;48.400;11.770;2023-08-06T07:11:03;20.30;75.80
14850;DHT22;7517;48.400;11.770;2023-08-06T07:13:31;20.30;75.60
14850;DHT22;7517;48.400;11.770;2023-08-06T07:15:59;20.30;75.50
14850;DHT22;7517;48.400;11.770;2023-08-06T07:18:27;20.30;75.60
14850;DHT22;7517;48.400;11.770;2023-08-06T07:20:56;20.30;75.80
14850;DHT22;7517;48.400;11.770;2023-08-06T07:23:24;20.30;75.70
14850;DHT22;7517;48.400;11.770;2023-08-06T07:25:52;20.40;75.80
14850;DHT22;7517;48.400;11.770;2023-08-06T07:28:19;20.40;76.00
14850;DHT22;7517;48.400;11.770;2023-08-06T07:30:49;20.40;76.00
14850;DHT22;7517;48.400;11.770;2023-08-06T07:33:16;20.50;75.80
14850;DHT22;7517;48.400;11.770;2023-08-06T07:35:43;20.50;75.50
14850;DHT22;7517;48.400;11.770;2023-08-06T07:38:13;20.60;75.30
14850;DHT22;7517;48.400;11.770;2023-08-06T07:40:40;20.60;75.20
14850;DHT22;7517;48.400;11.770;2023-08-06T07:43:07;20.60;75.20
14850;DHT22;7517;48.400;11.770;2023-08-06T07:45:35;20.60;75.10
14850;DHT22;7517;48.400;11.770;2023-08-06T07:48:03;20.70;75.20
14850;DHT22;7517;48.400;11.770;2023-08-06T07:50:31;20.70;75.10
14850;DHT22;7517;48.400;11.770;2023-08-06T07:52:58;20.80;75.10
14850;DHT22;7517;48.400;11.770;2023-08-06T07:55:27;20.80;75.20
14850;DHT22;7517;48.400;11.770;2023-08-06T07:57:54;20.90;75.30
14850;DHT22;7517;48.400;11.770;2023-08-06T08:00:22;21.00;75.00
14850;DHT22;7517;48.400;11.770;2023-08-06T08:02:50;21.00;74.60
14850;DHT22;7517;48.400;11.770;2023-08-06T08:05:18;21.10;74.80
14850;DHT22;7517;48.400;11.770;2023-08-06T08:07:45;21.10;74.30
14850;DHT22;7517;48.400;11.770;2023-08-06T08:10:12;21.20;74.80
14850;DHT22;7517;48.400;11.770;2023-08-06T08:12:41;21.20;74.90
14850;DHT22;7517;48.400;11.770;2023-08-06T08:15:08;21.30;74.70
14850;DHT22;7517;48.400;11.770;2023-08-06T08:17:36;21.30;74.60
14850;DHT22;7517;48.400;11.770;2023-08-06T08:20:04;21.40;74.20
14850;DHT22;7517;48.400;11.770;2023-08-06T08:22:32;21.50;73.30
14850;DHT22;7517;48.400;11.770;2023-08-06T08:24:59;21.50;72.70
14850;DHT22;7517;48.400;11.770;2023-08-06T08:27:27;21.60;72.10
14850;DHT22;7517;48.400;11.770;2023-08-06T08:29:57;21.60;71.70
14850;DHT22;7517;48.400;11.770;2023-08-06T08:32:24;21.60;71.20
14850;DHT22;7517;48.400;11.770;2023-08-06T08:34:51;21.60;70.70
14850;DHT22;7517;48.400;11.770;2023-08-06T08:37:19;21.60;70.30
14850;DHT22;7517;48.400;11.770;2023-08-06T08:39:46;21.70;70.60
14850;DHT22;7517;48.400;11.770;2023-08-06T08:42:13;21.70;70.40
14850;DHT22;7517;48.400;11.770;2023-08-06T08:44:42;21.70;70.80
14850;DHT22;7517;48.400;11.770;2023-08-06T08:47:12;21.70;69.70
14850;DHT22;7517;48.400;11.770;2023-08-06T08:49:42;21.70;69.20
14850;DHT22;7517;48.400;11.770;2023-08-06T08:52:10;21.70;68.80
14850;DHT22;7517;48.400;11.770;2023-08-06T08:54:40;21.70;68.70
14850;DHT22;7517;48.400;11.770;2023-08-06T08:57:09;21.70;68.90
14850;DHT22;7517;48.400;11.770;2023-08-06T08:59:36;21.70;68.90
14850;DHT22;7517;48.400;11.770;2023-08-06T09:02:04;21.70;69.10
14850;DHT22;7517;48.400;11.770;2023-08-06T09:04:38;21.70;68.90
14850;DHT22;7517;48.400;11.770;2023-08-06T09:07:08;21.60;68.60
14850;DHT22;7517;48.400;11.770;2023-08-06T09:09:40;21.70;69.00
14850;DHT22;7517;48.400;11.770;2023-08-06T09:12:12;21.70;68.90
14850;DHT22;7517;48.400;11.770;2023-08-06T09:14:41;21.70;68.90
14850;DHT22;7517;48.400;11.770;2023-08-06T09:17:09;21.70;69.20
14850;DHT22;7517;48.400;11.770;2023-08-06T09:19:41;21.80;69.50
14850;DHT22;7517;48.400;11.770;2023-08-06T09:22:12;21.80;69.60
14850;DHT22;7517;48.400;11.770;2023-08-06T09:24:39;21.90;69.00
14850;DHT22;7517;48.400;11.770;2023-08-06T09:27:11;22.00;68.70
14850;DHT22;7517;48.400;11.770;2023-08-06T09:29:42;22.10;68.40
14850;DHT22;7517;48.400;11.770;2023-08-06T09:32:11;22.10;67.60
14850;DHT22;7517;48.400;11.770;2023-08-06T09:34:42;22.10;67.50
14850;DHT22;7517;48.400;11.770;2023-08-06T09:37:10;22.10;67.90
14850;DHT22;7517;48.400;11.770;2023-08-06T09:39:39;22.10;67.50
14850;DHT22;7517;48.400;11.770;2023-08-06T09:42:07;22.10;67.50
14850;DHT22;7517;48.400;11.770;2023-08-06T09:44:34;22.10;67.50
14850;DHT22;7517;48.400;11.770;2023-08-06T09:47:02;22.10;67.60
14850;DHT22;7517;48.400;11.770;2023-08-06T09:49:42;22.10;67.70
14850;DHT22;7517;48.400;11.770;2023-08-06T09:52:11;22.10;66.40
14850;DHT22;7517;48.400;11.770;2023-08-06T09:54:43;22.20;67.70
14850;DHT22;7517;48.400;11.770;2023-08-06T09:57:12;22.20;68.10
14850;DHT22;7517;48.400;11.770;2023-08-06T09:59:41;22.20;67.20
14850;DHT22;7517;48.400;11.770;2023-08-06T10:02:13;22.20;66.70
14850;DHT22;7517;48.400;11.770;2023-08-06T10:04:43;22.20;66.10
14850;DHT22;7517;48.400;11.770;2023-08-06T10:07:12;22.20;66.70
14850;DHT22;7517;48.400;11.770;2023-08-06T10:09:39;22.10;67.10
14850;DHT22;7517;48.400;11.770;2023-08-06T10:12:06;22.00;67.50
14850;DHT22;7517;48.400;11.770;2023-08-06T10:14:37;21.90;68.10
14850;DHT22;7517;48.400;11.770;2023-08-06T10:17:05;21.70;68.60
14850;DHT22;7517;48.400;11.770;2023-08-06T10:19:33;21.60;68.70
14850;DHT22;7517;48.400;11.770;2023-08-06T10:22:13;21.50;69.20
14850;DHT22;7517;48.400;11.770;2023-08-06T10:24:47;21.30;70.60
14850;DHT22;7517;48.400;11.770;2023-08-06T10:27:20;21.20;71.00
14850;DHT22;7517;48.400;11.770;2023-08-06T10:29:48;21.10;71.50
14850;DHT22;7517;48.400;11.770;2023-08-06T10:32:16;21.00;72.00
14850;DHT22;7517;48.400;11.770;2023-08-06T10:34:57;20.90;73.00
14850;DHT22;7517;48.400;11.770;2023-08-06T10:37:35;20.90;74.40
14850;DHT22;7517;48.400;11.770;2023-08-06T10:40:05;20.90;74.20
14850;DHT22;7517;48.400;11.770;2023-08-06T10:42:34;20.90;75.00
14850;DHT22;7517;48.400;11.770;2023-08-06T10:45:15;20.90;75.60
14850;DHT22;7517;48.400;11.770;2023-08-06T10:47:45;21.10;76.60
14850;DHT22;7517;48.400;11.770;2023-08-06T10:50:13;21.20;75.40
14850;DHT22;7517;48.400;11.770;2023-08-06T10:52:45;21.20;74.50
14850;DHT22;7517;48.400;11.770;2023-08-06T10:55:13;21.30;73.20
14850;DHT22;7517;48.400;11.770;2023-08-06T10:57:40;21.40;72.40
14850;DHT22;7517;48.400;11.770;2023-08-06T11:00:09;21.40;72.20
14850;DHT22;7517;48.400;11.770;2023-08-06T11:02:39;21.40;71.80
14850;DHT22;7517;48.400;11.770;2023-08-06T11:05:07;21.40;70.90
14850;DHT22;7517;48.400;11.770;2023-08-06T11:07:36;21.40;71.00
14850;DHT22;7517;48.400;11.770;2023-08-06T11:10:08;21.40;71.10
14850;DHT22;7517;48.400;11.770;2023-08-06T11:12:36;21.40;71.10
14850;DHT22;7517;48.400;11.770;2023-08-06T11:15:05;21.40;71.20
14850;DHT22;7517;48.400;11.770;2023-08-06T11:17:33;21.40;70.70
14850;DHT22;7517;48.400;11.770;2023-08-06T11:20:02;21.40;70.10
14850;DHT22;7517;48.400;11.770;2023-08-06T11:22:31;21.40;70.20
14850;DHT22;7517;48.400;11.770;2023-08-06T11:24:59;21.40;69.90
14850;DHT22;7517;48.400;11.770;2023-08-06T11:27:29;21.40;69.60
14850;DHT22;7517;48.400;11.770;2023-08-06T11:29:56;21.40;68.80
14850;DHT22;7517;48.400;11.770;2023-08-06T11:32:24;21.50;69.00
14850;DHT22;7517;48.400;11.770;2023-08-06T11:34:53;21.40;68.30
14850;DHT22;7517;48.400;11.770;2023-08-06T11:37:21;21.40;68.20
14850;DHT22;7517;48.400;11.770;2023-08-06T11:39:51;21.40;67.70
14850;DHT22;7517;48.400;11.770;2023-08-06T11:42:19;21.40;67.80
14850;DHT22;7517;48.400;11.770;2023-08-06T11:44:47;21.40;68.00
14850;DHT22;7517;48.400;11.770;2023-08-06T11:47:16;21.40;67.90
14850;DHT22;7517;48.400;11.770;2023-08-06T11:49:45;21.40;68.70
14850;DHT22;7517;48.400;11.770;2023-08-06T11:52:16;21.40;69.20
14850;DHT22;7517;48.400;11.770;2023-08-06T11:54:46;21.40;69.00
14850;DHT22;7517;48.400;11.770;2023-08-06T11:57:15;21.30;68.90
14850;DHT22;7517;48.400;11.770;2023-08-06T11:59:43;21.30;69.10
14850;DHT22;7517;48.400;11.770;2023-08-06T12:02:13;21.20;69.30
14850;DHT22;7517;48.400;11.770;2023-08-06T12:05:03;21.20;69.30
14850;DHT22;7517;48.400;11.770;2023-08-06T12:07:38;21.20;70.30
14850;DHT22;7517;48.400;11.770;2023-08-06T12:10:06;21.10;69.80
14850;DHT22;7517;48.400;11.770;2023-08-06T12:12:35;21.10;69.10
14850;DHT22;7517;48.400;11.770;2023-08-06T12:15:04;21.10;69.40
14850;DHT22;7517;48.400;11.770;2023-08-06T12:17:34;21.10;70.00
14850;DHT22;7517;48.400;11.770;2023-08-06T12:20:01;21.10;69.60
14850;DHT22;7517;48.400;11.770;2023-08-06T12:22:31;21.00;69.40
14850;DHT22;7517;48.400;11.770;2023-08-06T12:25:01;21.10;69.20
14850;DHT22;7517;48.400;11.770;2023-08-06T12:27:29;21.10;69.40
14850;DHT22;7517;48.400;11.770;2023-08-06T12:29:56;21.10;68.90
14850;DHT22;7517;48.400;11.770;2023-08-06T12:32:24;21.10;68.80
14850;DHT22;7517;48.400;11.770;2023-08-06T12:34:52;21.20;68.60
14850;DHT22;7517;48.400;11.770;2023-08-06T12:37:19;21.20;68.20
14850;DHT22;7517;48.400;11.770;2023-08-06T12:39:47;21.20;68.00
14850;DHT22;7517;48.400;11.770;2023-08-06T12:42:14;21.30;67.80
14850;DHT22;7517;48.400;11.770;2023-08-06T12:44:42;21.40;67.90
14850;DHT22;7517;48.400;11.770;2023-08-06T12:47:09;21.40;67.90
14850;DHT22;7517;48.400;11.770;2023-08-06T12:49:37;21.50;67.80
14850;DHT22;7517;48.400;11.770;2023-08-06T12:52:06;21.60;67.10
14850;DHT22;7517;48.400;11.770;2023-08-06T12:54:35;21.60;67.00
14850;DHT22;7517;48.400;11.770;2023-08-06T12:57:03;21.60;67.70
14850;DHT22;7517;48.400;11.770;2023-08-06T12:59:31;21.50;67.90
14850;DHT22;7517;48.400;11.770;2023-08-06T13:02:01;21.40;68.30
14850;DHT22;7517;48.400;11.770;2023-08-06T13:04:29;21.40;68.80
14850;DHT22;7517;48.400;11.770;2023-08-06T13:06:56;21.30;69.40
14850;DHT22;7517;48.400;11.770;2023-08-06T13:09:25;21.30;69.50
14850;DHT22;7517;48.400;11.770;2023-08-06T13:11:53;21.20;69.20
14850;DHT22;7517;48.400;11.770;2023-08-06T13:14:20;21.20;69.60
14850;DHT22;7517;48.400;11.770;2023-08-06T13:16:47;21.20;69.80
14850;DHT22;7517;48.400;11.770;2023-08-06T13:19:15;21.20;70.10
14850;DHT22;7517;48.400;11.770;2023-08-06T13:22:02;21.20;69.80
14850;DHT22;7517;48.400;11.770;2023-08-06T13:24:33;21.20;68.50
14850;DHT22;7517;48.400;11.770;2023-08-06T13:27:01;21.30;68.80
14850;DHT22;7517;48.400;11.770;2023-08-06T13:29:28;21.30;68.80
14850;DHT22;7517;48.400;11.770;2023-08-06T13:31:55;21.30;68.40
14850;DHT22;7517;48.400;11.770;2023-08-06T13:34:23;21.30;68.10
14850;DHT22;7517;48.400;11.770;2023-08-06T13:36:50;21.40;67.90
14850;DHT22;7517;48.400;11.770;2023-08-06T13:39:18;21.40;67.90
14850;DHT22;7517;48.400;11.770;2023-08-06T13:41:47;21.50;67.70
14850;DHT22;7517;48.400;11.770;2023-08-06T13:44:14;21.50;67.20
14850;DHT22;7517;48.400;11.770;2023-08-06T13:46:42;21.50;67.00
14850;DHT22;7517;48.400;11.770;2023-08-06T13:49:09;21.60;67.00
14850;DHT22;7517;48.400;11.770;2023-08-06T13:51:36;21.60;66.70
14850;DHT22;7517;48.400;11.770;2023-08-06T13:54:04;21.60;67.00
14850;DHT22;7517;48.400;11.770;2023-08-06T13:56:32;21.60;67.00
14850;DHT22;7517;48.400;11.770;2023-08-06T13:59:04;21.60;67.30
14850;DHT22;7517;48.400;11.770;2023-08-06T14:01:32;21.60;66.90
14850;DHT22;7517;48.400;11.770;2023-08-06T14:03:59;21.60;66.50
14850;DHT22;7517;48.400;11.770;2023-08-06T14:06:26;21.50;66.50
14850;DHT22;7517;48.400;11.770;2023-08-06T14:08:54;21.50;66.70
14850;DHT22;7517;48.400;11.770;2023-08-06T14:11:21;21.50;67.00
14850;DHT22;7517;48.400;11.770;2023-08-06T14:13:48;21.50;67.00
14850;DHT22;7517;48.400;11.770;2023-08-06T14:16:17;21.50;66.80
14850;DHT22;7517;48.400;11.770;2023-08-06T14:18:45;21.40;67.40
14850;DHT22;7517;48.400;11.770;2023-08-06T14:21:12;21.40;67.60
14850;DHT22;7517;48.400;11.770;2023-08-06T14:23:40;21.30;68.20
14850;DHT22;7517;48.400;11.770;2023-08-06T14:26:08;21.20;68.40
14850;DHT22;7517;48.400;11.770;2023-08-06T14:28:36;21.20;68.80
14850;DHT22;7517;48.400;11.770;2023-08-06T14:31:03;21.10;68.80
14850;DHT22;7517;48.400;11.770;2023-08-06T14:33:32;21.00;69.10
14850;DHT22;7517;48.400;11.770;2023-08-06T14:35:59;20.90;69.60
14850;DHT22;7517;48.400;11.770;2023-08-06T14:38:27;20.80;70.00
14850;DHT22;7517;48.400;11.770;2023-08-06T14:40:55;20.70;70.30
14850;DHT22;7517;48.400;11.770;2023-08-06T14:43:22;20.60;70.70
14850;DHT22;7517;48.400;11.770;2023-08-06T14:45:49;20.60;71.10
14850;DHT22;7517;48.400;11.770;2023-08-06T14:48:17;20.50;71.50
14850;DHT22;7517;48.400;11.770;2023-08-06T14:50:45;20.30;71.80
14850;DHT22;7517;48.400;11.770;2023-08-06T14:53:12;20.30;72.00
14850;DHT22;7517;48.400;11.770;2023-08-06T14:55:40;20.20;72.20
14850;DHT22;7517;48.400;11.770;2023-08-06T14:58:08;20.10;72.90
14850;DHT22;7517;48.400;11.770;2023-08-06T15:00:36;20.00;73.30
14850;DHT22;7517;48.400;11.770;2023-08-06T15:03:03;20.00;73.80
14850;DHT22;7517;48.400;11.770;2023-08-06T15:05:30;19.90;73.90
14850;DHT22;7517;48.400;11.770;2023-08-06T15:07:59;19.90;74.90
14850;DHT22;7517;48.400;11.770;2023-08-06T15:10:27;19.80;74.70
14850;DHT22;7517;48.400;11.770;2023-08-06T15:12:55;19.80;75.00
14850;DHT22;7517;48.400;11.770;2023-08-06T15:15:22;19.70;75.20
14850;DHT22;7517;48.400;11.770;2023-08-06T15:17:52;19.80;75.30
14850;DHT22;7517;48.400;11.770;2023-08-06T15:20:19;19.70;75.20
14850;DHT22;7517;48.400;11.770;2023-08-06T15:22:47;19.70;75.10
14850;DHT22;7517;48.400;11.770;2023-08-06T15:25:16;19.70;75.20
14850;DHT22;7517;48.400;11.770;2023-08-06T15:27:43;19.70;75.20
14850;DHT22;7517;48.400;11.770;2023-08-06T15:30:11;19.60;75.00
14850;DHT22;7517;48.400;11.770;2023-08-06T15:32:39;19.60;75.10
14850;DHT22;7517;48.400;11.770;2023-08-06T15:35:09;19.60;75.30
14850;DHT22;7517;48.400;11.770;2023-08-06T15:37:37;19.60;75.40